Terminal Aerodrome Forecast
Issued by NWS

Home | Current Version | Previous Version | Text Only | Print | Product List | Glossary On
Versions: 1 2 3 4 5 6 7 8 9 10 11 12 13 14 15 16
338
FTUS43 KMQT 242320
TAFCMX
TAF
KCMX 242320Z 2500/2524 28007KT P6SM VCSH OVC003
     FM250300 28003KT 5SM BR BKN003
     FM251300 30006KT 6SM BR BKN008
     FM251500 33006KT 5SM BR BKN010
     FM251600 33006KT P6SM BKN020
     FM251800 35006KT P6SM OVC040=

USA.gov is the U.S. government's official web portal to all federal, state and local government web resources and services.